Terminal Aerodrome Forecast
Issued by NWS

Home | Current Version | Previous Version | Text Only | Print | Product List | Glossary On
Versions: 1 2 3 4 5 6 7 8 9 10 11 12 13 14 15 16 17
898
FTUS41 KPBZ 040545
TAFBVI
TAF
KBVI 040545Z 0406/0506 27005KT P6SM OVC025
     FM041200 VRB03KT P6SM OVC035
     FM041500 14003KT P6SM OVC090
     FM050300 14004KT 6SM -SHRA OVC050
      AMD NOT SKED=

USA.gov is the U.S. government's official web portal to all federal, state and local government web resources and services.